Time;durP1;ratioP1;P1;durP2;ratioP2;P2;SDS_P1;SDS_P2;PMS_P1;PMS_P2;Temp;Humidity;BMP_temperature;BMP_pressure;BME280_temperature;BME280_humidity;BME280_pressure;Samples;Min_cycle;Max_cycle;Signal;HPM_P1;HPM_P2
2023/03/23 00:03:28;;;;;;;2.07;1.80;;;;;;;14.03;43.80;98985.03;10516529;28;20249;-70
2023/03/23 00:08:29;;;;;;;1.97;1.80;;;;;;;13.40;44.39;98942.38;10521780;28;20265;-70
2023/03/23 00:13:30;;;;;;;1.90;1.70;;;;;;;13.77;44.32;98974.63;10522143;28;20288;-70
2023/03/23 00:18:30;;;;;;;1.60;1.50;;;;;;;12.74;45.94;98920.47;10512894;28;20312;-69
2023/03/23 00:23:31;;;;;;;2.23;1.90;;;;;;;14.80;43.58;98923.50;10533722;28;20297;-70
2023/03/23 00:28:32;;;;;;;1.63;1.53;;;;;;;14.06;44.49;98978.41;10521741;28;20669;-69
2023/03/23 00:33:37;;;;;;;1.80;1.70;;;;;;;14.78;43.53;98916.47;10532215;28;20202;-69
2023/03/23 00:38:39;;;;;;;1.60;1.50;;;;;;;15.57;42.23;98927.91;10524989;28;20257;-69
2023/03/23 00:43:40;;;;;;;2.00;1.90;;;;;;;13.34;44.67;98957.50;10518937;28;20723;-70
2023/03/23 00:48:44;;;;;;;2.33;1.77;;;;;;;14.53;42.89;98930.13;10530156;28;20225;-70
2023/03/23 00:53:45;;;;;;;2.30;1.63;;;;;;;15.16;42.31;98919.75;10525662;28;20712;-69
2023/03/23 00:58:46;;;;;;;3.20;2.10;;;;;;;13.72;43.74;98963.72;10525702;28;20213;-69
2023/03/23 01:03:46;;;;;;;2.23;1.87;;;;;;;13.98;43.27;98925.72;10500223;28;20234;-69
2023/03/23 01:08:47;;;;;;;2.67;1.90;;;;;;;15.38;42.05;98905.66;10526483;28;20265;-70
2023/03/23 01:13:47;;;;;;;1.93;1.83;;;;;;;14.09;42.84;98918.78;10530052;28;20206;-70
2023/03/23 01:18:48;;;;;;;2.40;1.80;;;;;;;15.45;41.95;98909.88;10532602;28;20305;-69
2023/03/23 01:23:49;;;;;;;2.60;2.10;;;;;;;15.37;41.96;98883.28;10534140;28;20221;-69
2023/03/23 01:28:50;;;;;;;2.00;1.80;;;;;;;14.52;42.65;98936.53;10533638;28;20205;-70
2023/03/23 01:33:51;;;;;;;4.20;1.60;;;;;;;16.13;41.12;98912.81;10525333;28;20633;-70
2023/03/23 01:38:52;;;;;;;3.53;2.20;;;;;;;15.12;42.71;98922.09;10529473;28;20210;-70
2023/03/23 01:44:08;;;;;;;2.23;2.10;;;;;;;15.30;41.73;98898.75;10526628;28;20230;-70
2023/03/23 01:49:36;;;;;;;1.97;1.80;;;;;;;13.49;43.52;98841.56;10506346;28;20297;-70
2023/03/23 01:54:39;;;;;;;1.77;1.60;;;;;;;14.18;43.36;98925.47;10519367;28;20318;-69
2023/03/23 01:59:44;;;;;;;3.07;1.83;;;;;;;14.92;42.83;98897.41;10520406;28;20632;-70
2023/03/23 02:04:45;;;;;;;2.60;2.20;;;;;;;13.92;43.55;98859.41;10521584;28;20288;-70
2023/03/23 02:09:46;;;;;;;1.83;1.70;;;;;;;15.75;41.91;98841.44;10532829;28;20210;-69
2023/03/23 02:14:47;;;;;;;2.00;1.90;;;;;;;14.81;43.09;98860.47;10523980;28;20697;-70
2023/03/23 02:20:00;;;;;;;1.80;1.70;;;;;;;14.72;43.24;98877.00;10525539;28;20209;-69
2023/03/23 02:25:26;;;;;;;2.27;2.10;;;;;;;14.62;43.21;98882.13;10525529;28;20234;-70
2023/03/23 02:30:35;;;;;;;3.30;2.00;;;;;;;15.12;42.07;98843.16;10527254;28;20219;-70
2023/03/23 02:35:39;;;;;;;1.80;1.70;;;;;;;14.24;43.71;98869.94;10523114;28;20250;-69
2023/03/23 02:40:44;;;;;;;2.50;2.30;;;;;;;15.92;42.39;98846.88;10532542;28;20202;-70
2023/03/23 02:45:46;;;;;;;2.53;2.33;;;;;;;15.68;42.11;98830.00;10506707;28;20225;-69
2023/03/23 02:50:51;;;;;;;2.60;2.40;;;;;;;15.40;42.30;98838.84;10531681;28;20216;-70
2023/03/23 02:55:54;;;;;;;1.90;1.80;;;;;;;16.21;40.85;98838.72;10507175;28;20895;-69
2023/03/23 03:00:56;;;;;;;2.50;2.23;;;;;;;15.26;41.43;98808.66;10520551;28;20207;-70
2023/03/23 03:06:28;;;;;;;2.00;1.90;;;;;;;15.21;42.63;98849.81;10501514;28;20234;-70
2023/03/23 03:11:31;;;;;;;2.20;2.10;;;;;;;14.63;42.78;98832.63;10523218;28;20587;-70
2023/03/23 03:16:37;;;;;;;2.50;2.30;;;;;;;15.45;42.28;98849.72;10523007;28;20736;-69
2023/03/23 03:21:42;;;;;;;2.17;2.07;;;;;;;15.25;42.82;98845.59;10511820;28;20221;-69
2023/03/23 03:26:47;;;;;;;2.80;2.57;;;;;;;15.78;41.89;98822.09;10508213;28;20229;-70
2023/03/23 03:31:50;;;;;;;3.13;2.10;;;;;;;16.51;40.95;98805.22;10520961;28;20236;-70
2023/03/23 03:36:54;;;;;;;2.20;2.00;;;;;;;14.83;42.90;98834.16;10505242;28;20227;-70
2023/03/23 03:41:55;;;;;;;2.20;2.00;;;;;;;14.92;42.45;98805.81;10506193;28;20256;-70
2023/03/23 03:46:55;;;;;;;2.47;2.13;;;;;;;15.85;42.13;98806.56;10527933;28;20313;-70
2023/03/23 03:51:56;;;;;;;4.53;2.90;;;;;;;15.97;41.80;98811.88;10534817;28;20617;-69
2023/03/23 03:56:57;;;;;;;3.10;2.30;;;;;;;16.68;40.62;98791.69;10533400;28;20227;-70
2023/03/23 04:01:58;;;;;;;2.83;2.20;;;;;;;16.62;40.60;98790.78;10516882;28;20242;-69
2023/03/23 04:06:58;;;;;;;2.83;2.20;;;;;;;15.28;42.38;98828.09;10517788;28;20235;-70
2023/03/23 04:11:59;;;;;;;2.77;2.30;;;;;;;15.29;42.37;98849.44;10516764;28;20206;-69
2023/03/23 04:16:59;;;;;;;2.83;2.53;;;;;;;15.73;42.12;98858.94;10534893;28;20222;-70
2023/03/23 04:22:01;;;;;;;4.07;2.43;;;;;;;16.62;41.28;98837.53;10532219;28;20206;-70
2023/03/23 04:27:01;;;;;;;4.20;2.03;;;;;;;15.24;42.92;98864.69;10517115;28;20241;-70
2023/03/23 04:32:02;;;;;;;4.40;2.10;;;;;;;16.30;41.41;98836.47;10524803;28;20213;-69
2023/03/23 04:37:03;;;;;;;4.13;2.03;;;;;;;16.11;41.64;98842.09;10529133;28;20262;-70
2023/03/23 04:42:03;;;;;;;3.10;2.70;;;;;;;16.00;41.76;98859.97;10524647;28;20679;-69
2023/03/23 04:47:04;;;;;;;3.50;2.70;;;;;;;15.55;42.35;98884.22;10499358;28;20227;-69
2023/03/23 04:52:05;;;;;;;2.73;2.50;;;;;;;16.95;41.18;98865.56;10524442;28;20203;-69
2023/03/23 04:57:08;;;;;;;5.40;2.57;;;;;;;15.56;42.75;98865.09;10510256;28;20250;-69
2023/03/23 05:05:31;;;;;;;4.87;3.20;;;;;;;14.40;46.71;98946.47;10480040;28;20830;-68
2023/03/23 05:10:32;;;;;;;3.43;2.50;;;;;;;14.15;47.00;98957.38;10432040;28;20981;-69
2023/03/23 05:15:32;;;;;;;8.20;4.20;;;;;;;13.77;46.57;98918.16;10429995;28;20232;-70
2023/03/23 05:20:33;;;;;;;3.47;3.07;;;;;;;13.65;47.21;98932.34;10434213;28;20208;-70
2023/03/23 05:25:39;;;;;;;2.80;2.60;;;;;;;14.82;45.21;98916.03;10431103;28;20232;-70
2023/03/23 05:30:40;;;;;;;3.00;2.73;;;;;;;15.34;43.84;98908.03;10437683;28;20668;-70
2023/03/23 05:35:41;;;;;;;4.63;2.90;;;;;;;15.63;44.12;98918.88;10433152;28;20236;-70
2023/03/23 05:40:42;;;;;;;3.97;2.60;;;;;;;15.59;43.98;98923.94;10431411;28;20213;-69
2023/03/23 05:45:43;;;;;;;4.60;2.80;;;;;;;15.55;44.47;98936.25;10431736;28;20252;-70
2023/03/23 05:50:44;;;;;;;4.37;2.70;;;;;;;14.80;44.80;98926.19;10435764;28;20615;-67
2023/03/23 05:55:45;;;;;;;2.17;2.07;;;;;;;14.75;45.29;98933.06;10421350;28;20782;-68
2023/03/23 06:00:46;;;;;;;3.30;2.53;;;;;;;14.98;45.32;98931.47;10425362;28;20338;-68
2023/03/23 06:05:47;;;;;;;3.00;2.80;;;;;;;14.98;46.00;98927.97;10425924;28;20232;-70
2023/03/23 06:10:48;;;;;;;4.83;3.07;;;;;;;14.87;45.50;98935.00;10427892;28;20600;-68
2023/03/23 06:15:49;;;;;;;3.63;2.93;;;;;;;14.40;46.45;98946.47;10403825;28;20612;-68
2023/03/23 06:20:50;;;;;;;3.73;2.90;;;;;;;14.57;46.02;98958.22;10397347;28;20213;-70
2023/03/23 06:25:54;;;;;;;3.07;2.77;;;;;;;15.04;45.29;98957.47;10400350;28;20240;-70
2023/03/23 06:30:58;;;;;;;3.53;2.90;;;;;;;15.06;45.73;98957.25;10399888;28;20246;-69
2023/03/23 06:35:59;;;;;;;3.03;2.73;;;;;;;14.02;47.01;98986.09;10400079;28;20611;-70
2023/03/23 06:41:00;;;;;;;2.43;2.20;;;;;;;15.10;45.20;98988.88;10390890;28;20228;-67
2023/03/23 06:46:01;;;;;;;2.33;2.03;;;;;;;13.74;47.25;99010.84;10401976;28;20228;-67
2023/03/23 06:51:02;;;;;;;3.33;2.77;;;;;;;14.57;46.43;99008.56;10407208;28;20695;-70
2023/03/23 06:56:03;;;;;;;4.23;3.17;;;;;;;14.47;46.54;99024.44;10405565;28;20317;-70
2023/03/23 07:01:04;;;;;;;2.50;2.30;;;;;;;14.07;47.10;99047.31;10385742;28;20378;-70
2023/03/23 07:06:05;;;;;;;5.03;3.43;;;;;;;14.29;47.07;99011.84;10400596;28;20290;-67
2023/03/23 07:11:06;;;;;;;4.10;3.20;;;;;;;14.75;46.87;99040.78;10397698;28;20308;-67
2023/03/23 07:16:07;;;;;;;3.70;2.30;;;;;;;14.45;47.36;99042.69;10397750;28;20231;-67
2023/03/23 07:21:08;;;;;;;2.77;2.53;;;;;;;14.89;46.15;99048.72;10404296;28;20228;-70
2023/03/23 07:26:08;;;;;;;2.10;2.00;;;;;;;15.12;45.68;99069.50;10397873;28;20240;-70
2023/03/23 07:31:09;;;;;;;2.10;2.00;;;;;;;13.25;47.90;99007.19;10402937;28;20286;-69
2023/03/23 07:36:10;;;;;;;2.30;2.10;;;;;;;14.07;46.68;99057.25;10398638;28;20228;-69
2023/03/23 07:41:10;;;;;;;1.90;1.80;;;;;;;14.07;47.36;99059.94;10397735;28;20236;-68
2023/03/23 07:46:12;;;;;;;2.53;2.33;;;;;;;14.73;47.02;99077.09;10394099;28;20316;-71
2023/03/23 07:51:13;;;;;;;3.17;1.90;;;;;;;14.37;47.93;99063.50;10395547;28;20248;-67
2023/03/23 07:56:14;;;;;;;2.20;2.10;;;;;;;15.29;46.26;99102.78;10398576;28;20244;-70
2023/03/23 08:01:15;;;;;;;3.10;2.20;;;;;;;15.20;46.20;99071.84;10402842;28;20320;-70
2023/03/23 08:06:16;;;;;;;2.50;1.80;;;;;;;15.70;45.51;99114.56;10399722;28;20231;-66
2023/03/23 08:11:18;;;;;;;2.57;2.10;;;;;;;14.85;47.35;99071.78;10399803;28;20213;-70
2023/03/23 08:16:19;;;;;;;2.50;2.30;;;;;;;14.36;47.71;99094.13;10392402;28;20236;-69
2023/03/23 08:21:22;;;;;;;6.60;2.17;;;;;;;14.34;47.50;99069.34;10390109;28;20631;-68
2023/03/23 08:26:22;;;;;;;2.40;2.20;;;;;;;14.51;47.73;99084.84;10388537;28;20260;-68
2023/03/23 08:31:23;;;;;;;2.27;2.07;;;;;;;15.11;46.93;99106.38;10401381;28;20303;-68
2023/03/23 08:36:23;;;;;;;2.80;2.07;;;;;;;14.80;47.14;99101.25;10385760;28;20295;-70
2023/03/23 08:41:24;;;;;;;2.87;2.33;;;;;;;14.60;47.50;99102.31;10400634;28;20358;-70
2023/03/23 08:46:25;;;;;;;2.30;2.20;;;;;;;14.83;48.04;99119.66;10388262;28;20232;-70
2023/03/23 08:51:26;;;;;;;2.53;2.20;;;;;;;15.48;48.07;99156.59;10382230;28;20216;-68
2023/03/23 08:56:27;;;;;;;2.47;2.27;;;;;;;15.35;48.95;99141.47;10381620;28;20243;-67
2023/03/23 09:01:27;;;;;;;3.53;2.40;;;;;;;13.80;51.51;99074.47;10390616;28;20248;-68
2023/03/23 09:06:28;;;;;;;3.53;2.30;;;;;;;14.57;50.24;99102.78;10393250;28;20236;-68
2023/03/23 09:11:28;;;;;;;2.37;2.00;;;;;;;14.46;50.10;99128.59;10406232;28;20219;-68
2023/03/23 09:16:29;;;;;;;2.57;2.10;;;;;;;13.97;51.41;99124.97;10391479;28;20287;-70
2023/03/23 09:21:30;;;;;;;3.40;2.00;;;;;;;14.44;50.72;99154.91;10394097;28;20237;-68
2023/03/23 09:26:31;;;;;;;2.13;1.80;;;;;;;14.34;50.54;99160.84;10392479;28;20251;-67
2023/03/23 09:31:32;;;;;;;3.63;2.30;;;;;;;14.54;50.36;99166.00;10392164;28;20712;-67
2023/03/23 09:36:32;;;;;;;1.90;1.80;;;;;;;14.44;50.18;99165.66;10383258;28;20258;-68
2023/03/23 09:42:00;;;;;;;2.43;2.23;;;;;;;16.05;48.29;99231.63;10391943;28;20718;-68
2023/03/23 09:47:23;;;;;;;5.17;3.53;;;;;;;14.78;50.54;99163.41;10400110;28;20263;-70
2023/03/23 09:52:33;;;;;;;2.93;2.70;;;;;;;15.38;48.88;99175.22;10402428;28;20225;-69
2023/03/23 09:57:59;;;;;;;2.70;2.50;;;;;;;15.39;49.25;99203.84;10388777;28;20232;-69
2023/03/23 10:03:12;;;;;;;2.37;2.10;;;;;;;14.70;50.05;99182.56;10396059;28;20298;-69
2023/03/23 10:08:23;;;;;;;2.03;1.83;;;;;;;14.89;49.94;99178.00;10403667;28;20319;-68
2023/03/23 10:13:37;;;;;;;2.93;2.20;;;;;;;15.73;49.01;99198.78;10406280;28;20205;-69
2023/03/23 10:18:43;;;;;;;2.20;2.10;;;;;;;13.51;52.19;99129.75;10404861;28;20704;-70
2023/03/23 10:24:03;;;;;;;2.70;2.40;;;;;;;14.81;50.76;99194.44;10401881;28;20845;-69
2023/03/23 10:29:29;;;;;;;2.93;2.40;;;;;;;13.82;52.76;99184.50;10405087;28;20212;-66
2023/03/23 10:34:36;;;;;;;2.83;2.40;;;;;;;13.88;52.82;99180.91;10404394;28;20232;-69
2023/03/23 10:39:58;;;;;;;3.50;2.40;;;;;;;15.27;49.63;99206.50;10401296;28;20677;-69
2023/03/23 10:45:10;;;;;;;2.53;2.27;;;;;;;15.57;49.81;99235.31;10401099;28;20648;-70
2023/03/23 10:50:16;;;;;;;4.53;2.93;;;;;;;15.51;49.48;99232.47;10392932;28;20216;-69
2023/03/23 10:55:22;;;;;;;3.37;3.00;;;;;;;15.21;49.71;99220.88;10407085;28;20224;-71
2023/03/23 11:06:39;;;;;;;2.53;2.30;;;;;;;13.04;55.08;99288.53;10478135;28;21716;-67
2023/03/23 11:11:43;;;;;;;2.57;2.37;;;;;;;12.84;53.61;99279.72;10436842;28;20215;-69
2023/03/23 11:16:55;;;;;;;3.30;2.47;;;;;;;13.06;52.99;99262.28;10427416;28;20220;-70
2023/03/23 11:22:22;;;;;;;2.63;2.40;;;;;;;14.39;51.12;99314.41;10425474;28;20224;-70
2023/03/23 11:27:24;;;;;;;4.43;2.70;;;;;;;13.12;51.75;99255.22;10437983;28;20239;-70
2023/03/23 11:32:29;;;;;;;2.90;2.60;;;;;;;13.66;50.83;99274.59;10438336;28;20235;-69
2023/03/23 11:37:39;;;;;;;3.33;2.67;;;;;;;14.34;49.40;99303.47;10426887;28;20228;-70
2023/03/23 11:42:50;;;;;;;5.53;3.10;;;;;;;13.77;50.18;99270.41;10436865;28;20232;-70
2023/03/23 11:48:03;;;;;;;3.00;2.80;;;;;;;14.29;48.69;99299.78;10432560;28;20298;-70
2023/03/23 11:53:17;;;;;;;3.27;2.53;;;;;;;15.00;48.29;99328.09;10426281;28;20404;-68
2023/03/23 11:58:20;;;;;;;2.37;2.13;;;;;;;14.30;48.36;99256.50;10429547;28;20311;-67
2023/03/23 12:03:20;;;;;;;3.07;2.50;;;;;;;14.46;48.77;99271.28;10428209;28;20240;-67
2023/03/23 12:08:43;;;;;;;4.33;3.10;;;;;;;14.70;47.94;99283.03;10430225;22;20743;-36
2023/03/23 12:14:01;;;;;;;3.43;2.90;;;;;;;14.67;48.13;99278.06;10395620;28;20312;-39
2023/03/23 12:19:20;;;;;;;3.00;2.47;;;;;;;14.46;48.75;99255.13;10367338;28;20726;-39
2023/03/23 12:24:34;;;;;;;2.20;2.03;;;;;;;14.63;48.44;99260.75;10375040;28;20635;-39
2023/03/23 12:30:07;;;;;;;2.90;2.60;;;;;;;14.83;47.68;99263.25;10374330;28;20209;-39
2023/03/23 12:35:42;;;;;;;2.17;1.83;;;;;;;14.87;47.55;99237.47;10369024;28;20570;-38
2023/03/23 12:41:47;;;;;;;3.60;2.23;;;;;;;13.65;48.58;99195.00;10370293;28;20259;-39
2023/03/23 12:47:15;;;;;;;2.40;2.20;;;;;;;15.30;46.94;99259.94;10326826;28;20245;-39
2023/03/23 12:52:26;;;;;;;2.30;2.10;;;;;;;14.87;47.13;99201.66;10367552;28;20601;-39
2023/03/23 12:57:35;;;;;;;2.27;2.17;;;;;;;14.76;47.16;99195.97;10372019;28;20242;-38
2023/03/23 13:02:49;;;;;;;2.17;1.97;;;;;;;14.88;47.06;99204.13;10371330;28;20312;-37
2023/03/23 13:08:05;;;;;;;2.30;2.10;;;;;;;14.40;47.62;99170.69;10372159;28;20236;-39
2023/03/23 13:13:14;;;;;;;3.97;2.30;;;;;;;14.34;48.05;99194.97;10375663;28;20213;-39
2023/03/23 13:18:49;;;;;;;2.10;2.00;;;;;;;14.87;47.47;99177.41;10377855;28;20220;-39
2023/03/23 13:23:56;;;;;;;2.60;2.37;;;;;;;17.00;44.67;99186.41;10373905;28;20239;-37
2023/03/23 13:29:24;;;;;;;2.63;2.43;;;;;;;15.87;45.36;99041.00;10370618;28;20842;-39
2023/03/23 13:34:29;;;;;;;2.30;2.20;;;;;;;16.53;45.50;99084.72;10367577;28;20259;-40
2023/03/23 13:39:50;;;;;;;2.43;2.20;;;;;;;15.30;46.33;99020.03;10366053;28;20340;-38
2023/03/23 13:44:51;;;;;;;3.97;2.90;;;;;;;18.24;43.14;99100.72;10367088;28;20247;-40
2023/03/23 13:50:02;;;;;;;2.73;2.43;;;;;;;16.99;44.27;99014.53;10372665;28;20292;-38
2023/03/23 13:55:14;;;;;;;3.93;2.67;;;;;;;16.71;44.79;99016.19;10370652;28;20310;-40
2023/03/23 14:00:33;;;;;;;3.07;2.30;;;;;;;15.95;45.76;98970.50;10370387;28;20300;-40
2023/03/23 14:05:39;;;;;;;2.70;2.37;;;;;;;16.17;45.65;98976.03;10366159;28;20236;-40
2023/03/23 14:11:05;;;;;;;2.33;2.13;;;;;;;17.33;44.54;99028.03;10372541;28;20240;-38
2023/03/23 14:16:22;;;;;;;3.93;2.80;;;;;;;16.56;45.30;98997.84;10372306;28;20229;-40
2023/03/23 14:21:49;;;;;;;2.10;2.00;;;;;;;16.48;45.52;99006.31;10366904;28;20592;-40
2023/03/23 14:27:01;;;;;;;2.47;2.27;;;;;;;16.46;44.97;98962.56;10369101;28;20268;-40
2023/03/23 14:32:05;;;;;;;2.50;2.30;;;;;;;16.00;46.34;98992.19;10370448;28;20209;-40
2023/03/23 14:37:12;;;;;;;2.13;1.93;;;;;;;15.86;46.68;98994.34;10374144;28;20232;-39
2023/03/23 14:42:16;;;;;;;2.83;2.30;;;;;;;16.83;44.62;98963.97;10369741;28;20304;-39
2023/03/23 14:47:19;;;;;;;2.47;2.20;;;;;;;17.89;42.47;98920.56;10368322;28;20221;-39
2023/03/23 14:52:24;;;;;;;5.57;2.27;;;;;;;18.59;42.32;98971.34;10365073;28;20626;-37
2023/03/23 14:57:25;;;;;;;3.33;2.63;;;;;;;18.21;41.68;98900.03;10368231;28;20237;-39
2023/03/23 15:02:33;;;;;;;2.60;2.40;;;;;;;18.40;41.66;98906.72;10364771;28;20722;-38
2023/03/23 15:07:36;;;;;;;2.90;2.70;;;;;;;18.86;41.39;98935.25;10357758;28;20257;-38
2023/03/23 15:12:37;;;;;;;4.87;2.80;;;;;;;17.94;42.02;98846.72;10367255;28;20216;-40
2023/03/23 15:17:38;;;;;;;3.53;2.60;;;;;;;16.55;46.51;98963.81;10367865;28;20564;-38
2023/03/23 15:22:46;;;;;;;2.90;2.60;;;;;;;16.70;46.47;98935.41;10371540;28;20241;-38
2023/03/23 15:27:58;;;;;;;3.20;2.90;;;;;;;16.28;47.57;98928.50;10375600;28;20244;-38
2023/03/23 15:33:06;;;;;;;5.10;2.50;;;;;;;16.13;46.60;98891.25;10365675;28;20266;-39
2023/03/23 15:38:25;;;;;;;3.30;2.63;;;;;;;18.12;44.23;98902.41;10365299;28;20315;-38
2023/03/23 15:43:30;;;;;;;7.00;3.73;;;;;;;17.20;45.21;98879.69;10369070;28;20287;-38
2023/03/23 15:48:45;;;;;;;5.60;3.20;;;;;;;17.39;45.04;98893.69;10373197;28;20275;-38
2023/03/23 15:53:46;;;;;;;3.10;2.67;;;;;;;18.44;43.25;98844.75;10372933;28;20240;-37
2023/03/23 15:58:47;;;;;;;6.03;3.00;;;;;;;17.53;44.54;98827.34;10376067;28;20225;-39
2023/03/23 16:04:00;;;;;;;4.40;2.70;;;;;;;18.34;43.27;98821.13;10367947;28;20244;-39
2023/03/23 16:09:03;;;;;;;4.13;2.97;;;;;;;20.15;40.86;98841.66;10369929;28;20754;-40
2023/03/23 16:14:05;;;;;;;3.23;2.87;;;;;;;19.04;42.78;98774.91;10372074;28;20957;-39
2023/03/23 16:19:10;;;;;;;4.00;2.80;;;;;;;19.62;41.72;98774.00;10373064;28;20220;-39
2023/03/23 16:24:11;;;;;;;5.17;4.17;;;;;;;18.33;44.76;98784.28;10373048;28;20244;-39
2023/03/23 16:29:15;;;;;;;4.03;3.40;;;;;;;18.43;44.53;98807.91;10369923;28;20849;-39
2023/03/23 16:34:37;;;;;;;5.93;3.13;;;;;;;19.17;42.75;98766.28;10372862;28;20260;-39
2023/03/23 16:39:39;;;;;;;3.03;2.60;;;;;;;17.76;45.39;98774.03;10370850;28;20225;-39
2023/03/23 16:44:41;;;;;;;3.57;3.17;;;;;;;18.14;44.47;98755.97;10368767;28;20252;-39
2023/03/23 16:49:43;;;;;;;4.53;2.70;;;;;;;18.09;44.35;98773.78;10376679;28;20205;-37
2023/03/23 16:54:44;;;;;;;4.67;4.10;;;;;;;18.08;44.65;98764.03;10367970;28;20221;-37
2023/03/23 16:59:46;;;;;;;4.80;3.77;;;;;;;17.69;45.21;98760.72;10375807;28;20248;-39
2023/03/23 17:04:48;;;;;;;3.53;3.23;;;;;;;17.77;45.03;98768.38;10372810;28;21006;-39
2023/03/23 17:09:50;;;;;;;3.33;3.03;;;;;;;17.78;44.84;98737.56;10372982;28;20754;-39
2023/03/23 17:14:51;;;;;;;2.60;2.27;;;;;;;18.06;44.74;98777.00;10369991;28;20233;-37
2023/03/23 17:19:53;;;;;;;3.47;2.87;;;;;;;18.48;43.52;98710.44;10373768;28;20661;-39
2023/03/23 17:24:56;;;;;;;3.00;2.70;;;;;;;19.06;42.49;98732.09;10367606;28;20237;-39
2023/03/23 17:29:58;;;;;;;8.83;3.10;;;;;;;18.51;42.73;98728.03;10376652;28;20205;-39
2023/03/23 17:35:00;;;;;;;2.47;2.20;;;;;;;18.25;44.09;98784.72;10369002;28;20231;-39
2023/03/23 17:40:03;;;;;;;4.20;3.10;;;;;;;17.03;45.24;98763.53;10373232;28;20837;-39
2023/03/23 17:45:07;;;;;;;18.57;11.07;;;;;;;16.70;46.43;98824.66;10371795;28;20276;-40
2023/03/23 17:50:10;;;;;;;13.90;8.33;;;;;;;15.84;46.76;98858.06;10372854;28;20208;-40
2023/03/23 17:55:13;;;;;;;5.43;4.10;;;;;;;15.96;46.25;98860.69;10369722;28;20237;-39
2023/03/23 18:00:15;;;;;;;7.33;4.00;;;;;;;15.50;45.90;98836.34;10372858;28;20213;-40
2023/03/23 18:05:17;;;;;;;4.17;3.70;;;;;;;15.20;44.95;98791.59;10366800;28;20327;-39
2023/03/23 18:10:19;;;;;;;4.43;3.37;;;;;;;17.04;42.67;98825.44;10372732;28;20237;-39
2023/03/23 18:15:21;;;;;;;4.07;3.10;;;;;;;16.67;42.60;98830.53;10369950;28;20899;-40
2023/03/23 18:20:30;;;;;;;3.77;2.80;;;;;;;16.60;42.48;98855.84;10372705;28;20821;-39
2023/03/23 18:25:32;;;;;;;3.33;2.90;;;;;;;16.93;42.31;98837.94;10396616;22;20789;-67
2023/03/23 18:30:34;;;;;;;3.03;2.57;;;;;;;16.53;42.67;98884.91;10443690;28;20231;-69
2023/03/23 18:35:36;;;;;;;2.83;2.20;;;;;;;16.35;43.38;98894.06;10442057;28;20228;-69
2023/03/23 18:40:45;;;;;;;3.10;2.50;;;;;;;16.67;42.32;98871.91;10434622;28;20668;-68
2023/03/23 18:45:51;;;;;;;3.30;2.47;;;;;;;15.98;42.77;98834.31;10423702;28;20322;-69
2023/03/23 18:50:55;;;;;;;3.00;2.30;;;;;;;16.26;42.66;98868.53;10442778;28;20744;-69
2023/03/23 18:56:17;;;;;;;3.83;2.27;;;;;;;15.81;43.64;98877.44;10438705;28;20204;-68
2023/03/23 19:01:19;;;;;;;3.87;2.27;;;;;;;14.33;45.22;98789.69;10435242;28;20314;-69
2023/03/23 19:06:24;;;;;;;5.73;3.23;;;;;;;16.44;43.06;98862.09;10438723;28;20227;-69
2023/03/23 19:11:26;;;;;;;4.07;3.07;;;;;;;15.80;43.83;98889.28;10436978;28;20609;-70
2023/03/23 19:16:29;;;;;;;3.47;2.97;;;;;;;16.64;42.71;98856.19;10440835;28;20216;-69
2023/03/23 19:21:31;;;;;;;5.87;2.97;;;;;;;16.25;42.37;98827.19;10436614;28;20235;-68
2023/03/23 19:26:36;;;;;;;2.93;2.70;;;;;;;15.25;44.41;98858.22;10447852;28;20361;-69
2023/03/23 19:31:39;;;;;;;3.27;2.50;;;;;;;15.00;44.72;98859.34;10446608;28;20259;-68
2023/03/23 19:36:41;;;;;;;5.30;2.53;;;;;;;15.07;43.77;98810.72;10449068;28;20586;-70
2023/03/23 19:41:49;;;;;;;3.00;2.50;;;;;;;15.02;44.42;98853.72;10446749;28;20326;-70
2023/03/23 19:46:52;;;;;;;3.33;2.60;;;;;;;14.04;45.33;98760.72;10454972;28;20227;-69
2023/03/23 19:51:54;;;;;;;3.40;2.00;;;;;;;15.72;43.37;98847.31;10451939;28;20228;-70
2023/03/23 19:57:12;;;;;;;3.37;2.47;;;;;;;15.59;43.58;98847.59;10440694;28;20213;-70
2023/03/23 20:02:14;;;;;;;3.43;2.80;;;;;;;16.01;43.29;98844.59;10452134;28;20231;-67
2023/03/23 20:07:16;;;;;;;3.17;2.50;;;;;;;17.02;42.17;98826.72;10446620;28;20229;-70
2023/03/23 20:12:18;;;;;;;3.83;2.90;;;;;;;16.52;42.43;98823.06;10450733;28;20232;-67
2023/03/23 20:17:19;;;;;;;3.20;2.90;;;;;;;15.69;42.78;98808.19;10443286;28;20215;-69
2023/03/23 20:22:21;;;;;;;3.77;2.83;;;;;;;15.16;43.87;98817.38;10449312;28;20239;-65
2023/03/23 20:27:23;;;;;;;4.17;2.73;;;;;;;14.59;44.82;98791.06;10443184;28;20228;-66
2023/03/23 20:32:24;;;;;;;2.73;2.33;;;;;;;15.46;43.24;98811.75;10449295;28;20712;-66
2023/03/23 20:37:27;;;;;;;2.87;2.40;;;;;;;16.05;42.96;98803.41;10449965;28;20247;-67
2023/03/23 20:42:35;;;;;;;5.43;2.63;;;;;;;15.69;43.11;98826.25;10443496;28;20236;-70
2023/03/23 20:47:37;;;;;;;4.10;3.00;;;;;;;16.25;42.59;98838.00;10447747;28;20203;-69
2023/03/23 20:52:39;;;;;;;3.67;2.40;;;;;;;15.20;43.71;98794.28;10448111;28;20228;-69
2023/03/23 20:57:42;;;;;;;3.47;2.93;;;;;;;15.08;43.76;98788.94;10445016;28;20636;-71
2023/03/23 21:02:43;;;;;;;5.57;2.70;;;;;;;16.56;41.83;98771.00;10448217;28;20239;-69
2023/03/23 21:07:47;;;;;;;4.53;2.57;;;;;;;16.21;42.41;98819.81;10384166;28;64947;-70
2023/03/23 21:28:45;;;;;;;3.23;2.53;;;;;;;15.92;42.08;98752.44;10407162;27;21187;-38
2023/03/23 21:33:47;;;;;;;4.17;3.07;;;;;;;15.91;42.73;98782.38;10389748;28;20252;-39
2023/03/23 21:38:49;;;;;;;5.70;3.30;;;;;;;17.32;41.15;98729.78;10393744;28;20312;-41
2023/03/23 21:43:51;;;;;;;3.23;2.90;;;;;;;17.99;39.79;98676.28;10397400;28;20229;-40
2023/03/23 21:48:53;;;;;;;3.30;2.70;;;;;;;17.12;40.92;98737.66;10398900;28;20264;-39
2023/03/23 21:53:55;;;;;;;4.67;2.90;;;;;;;17.92;40.15;98700.84;10387426;28;20327;-38
2023/03/23 21:58:57;;;;;;;2.80;2.60;;;;;;;17.47;40.25;98693.94;10390519;28;20741;-41
2023/03/23 22:03:59;;;;;;;3.43;3.13;;;;;;;17.20;40.79;98683.16;10390628;28;20595;-41
2023/03/23 22:09:04;;;;;;;4.73;2.77;;;;;;;16.92;40.77;98700.38;10397202;28;20732;-39
2023/03/23 22:14:06;;;;;;;3.10;2.80;;;;;;;18.87;39.02;98661.25;10395156;28;20251;-41
2023/03/23 22:19:08;;;;;;;4.13;2.50;;;;;;;18.65;39.13;98664.97;10394561;28;20728;-39
2023/03/23 22:24:10;;;;;;;3.00;2.70;;;;;;;16.69;41.07;98671.78;10394606;28;20240;-39
2023/03/23 22:29:13;;;;;;;3.30;2.70;;;;;;;16.29;41.54;98667.50;10407514;28;20232;-41
2023/03/23 22:34:15;;;;;;;3.30;2.97;;;;;;;17.61;40.78;98645.66;10390759;28;20355;-39
2023/03/23 22:39:17;;;;;;;3.67;3.00;;;;;;;17.63;41.08;98669.78;10363882;28;20343;-41
2023/03/23 22:44:19;;;;;;;3.40;2.30;;;;;;;15.34;44.16;98641.19;10358796;28;20239;-40
2023/03/23 22:49:21;;;;;;;2.90;2.60;;;;;;;16.09;43.72;98692.28;10370359;28;20239;-39
2023/03/23 22:54:23;;;;;;;2.97;2.67;;;;;;;16.92;42.82;98654.47;10365100;28;20235;-39
2023/03/23 22:59:25;;;;;;;3.80;2.63;;;;;;;16.05;43.91;98651.47;10367059;28;20233;-40
2023/03/23 23:04:28;;;;;;;4.13;2.70;;;;;;;15.23;47.01;98704.03;10362837;28;20225;-38
2023/03/23 23:09:30;;;;;;;3.57;3.00;;;;;;;16.37;45.25;98631.97;10362656;28;20232;-39
2023/03/23 23:14:32;;;;;;;4.00;2.80;;;;;;;18.00;43.15;98595.88;10368470;28;20671;-41
2023/03/23 23:19:35;;;;;;;6.13;3.10;;;;;;;18.43;42.30;98570.38;10363223;28;20252;-39
2023/03/23 23:24:37;;;;;;;5.97;3.63;;;;;;;18.98;41.00;98576.22;10361349;28;20270;-39
2023/03/23 23:29:39;;;;;;;4.03;3.10;;;;;;;18.54;42.12;98579.38;10362723;28;20238;-39
2023/03/23 23:34:41;;;;;;;3.43;3.13;;;;;;;16.87;43.55;98576.06;10366992;28;20324;-39
2023/03/23 23:39:43;;;;;;;5.27;3.63;;;;;;;16.63;44.45;98589.84;10365960;28;20690;-40
2023/03/23 23:44:45;;;;;;;3.53;3.23;;;;;;;16.53;43.92;98590.56;10359304;28;20229;-39
2023/03/23 23:49:47;;;;;;;5.17;3.30;;;;;;;18.52;41.67;98512.97;10364304;28;20239;-39
2023/03/23 23:54:50;;;;;;;3.90;3.50;;;;;;;15.62;48.07;98590.97;10364810;28;20607;-39
2023/03/23 23:59:52;;;;;;;5.37;3.30;;;;;;;15.95;47.36;98608.97;10354724;28;20248;-40
